createdAt,value
2019-06-07T00:00:04.555Z,95.60
2019-06-07T00:02:34.126Z,96.10
2019-06-07T00:05:02.386Z,96.00
2019-06-07T00:07:30.722Z,96.10
2019-06-07T00:09:58.986Z,96.10
2019-06-07T00:12:27.235Z,95.90
2019-06-07T00:14:55.575Z,95.50
2019-06-07T00:17:23.818Z,95.00
2019-06-07T00:19:52.110Z,95.10
2019-06-07T00:22:32.233Z,96.10
2019-06-07T00:24:50.417Z,96.30
2019-06-07T00:27:22.224Z,96.50
2019-06-07T00:29:48.665Z,97.10
2019-06-07T00:32:19.122Z,97.60
2019-06-07T00:34:46.907Z,97.60
2019-06-07T00:37:16.535Z,96.40
2019-06-07T00:39:45.133Z,95.50
2019-06-07T00:42:16.973Z,95.40
2019-06-07T00:44:43.378Z,96.20
2019-06-07T00:47:13.052Z,97.70
2019-06-07T00:49:41.827Z,98.50
2019-06-07T00:52:18.506Z,98.90
2019-06-07T00:54:40.276Z,98.60
2019-06-07T00:57:08.545Z,98.40
2019-06-07T00:59:36.800Z,97.70
2019-06-07T01:02:05.524Z,96.10
2019-06-07T01:04:33.990Z,96.60
2019-06-07T01:07:02.258Z,97.20
2019-06-07T01:09:30.523Z,97.10
2019-06-07T01:11:58.789Z,95.90
2019-06-07T01:14:28.553Z,95.50
2019-06-07T01:17:07.050Z,95.70
2019-06-07T01:19:27.897Z,95.90
2019-06-07T01:21:57.025Z,96.00
2019-06-07T01:24:25.841Z,96.80
2019-06-07T01:26:54.118Z,96.90
2019-06-07T01:29:25.006Z,97.20
2019-06-07T01:31:52.366Z,97.40
2019-06-07T01:34:21.132Z,97.60
2019-06-07T01:36:50.609Z,97.80
2019-06-07T01:39:18.884Z,98.00
2019-06-07T01:41:47.202Z,98.40
2019-06-07T01:44:17.745Z,98.50
2019-06-07T01:46:45.431Z,98.40
2019-06-07T01:49:13.670Z,98.60
2019-06-07T01:51:41.942Z,98.60
2019-06-07T01:54:49.493Z,98.80
2019-06-07T01:56:40.172Z,98.70
2019-06-07T01:59:08.417Z,98.60
2019-06-07T02:01:36.682Z,98.60
2019-06-07T02:04:05.058Z,98.90
2019-06-07T02:06:33.565Z,99.00
2019-06-07T02:09:01.986Z,99.20
2019-06-07T02:11:31.828Z,99.90
2019-06-07T02:14:00.565Z,99.90
2019-06-07T02:16:31.984Z,99.60
2019-06-07T02:19:01.913Z,99.10
2019-06-07T02:21:33.411Z,98.90
2019-06-07T02:23:58.753Z,99.00
2019-06-07T02:26:30.018Z,99.10
2019-06-07T02:28:56.989Z,99.10
2019-06-07T02:31:28.658Z,99.20
2019-06-07T02:33:55.226Z,99.10
2019-06-07T02:36:28.820Z,99.00
2019-06-07T02:38:53.444Z,99.10
2019-06-07T02:41:25.820Z,99.00
2019-06-07T02:43:51.752Z,98.80
2019-06-07T02:46:34.160Z,98.70
2019-06-07T02:48:54.952Z,98.60
2019-06-07T02:51:26.521Z,98.80
2019-06-07T02:53:53.185Z,98.80
2019-06-07T02:56:39.052Z,99.10
2019-06-07T02:58:51.430Z,99.50
2019-06-07T03:01:19.665Z,99.70
2019-06-07T03:03:47.922Z,99.90
2019-06-07T03:06:16.170Z,99.90
2019-06-07T03:08:45.962Z,99.90
2019-06-07T03:11:15.145Z,99.90
2019-06-07T03:13:46.218Z,99.90
2019-06-07T03:16:18.475Z,99.90
2019-06-07T03:18:51.338Z,99.80
2019-06-07T03:21:24.025Z,99.40
2019-06-07T03:23:56.535Z,98.80
2019-06-07T03:26:27.626Z,98.20
2019-06-07T03:28:56.072Z,98.20
2019-06-07T03:31:28.500Z,98.30
2019-06-07T03:33:55.556Z,99.90
2019-06-07T03:36:26.045Z,99.90
2019-06-07T03:38:53.866Z,99.90
2019-06-07T03:41:22.105Z,90.90
2019-06-07T03:43:50.366Z,88.40
2019-06-07T03:46:18.622Z,94.30
2019-06-07T03:48:46.966Z,89.50
2019-06-07T03:51:24.659Z,83.20
2019-06-07T03:53:45.205Z,81.40
2019-06-07T03:56:13.953Z,79.70
2019-06-07T03:58:49.537Z,80.20
2019-06-07T04:01:12.438Z,81.90
2019-06-07T04:03:50.680Z,72.50
2019-06-07T04:06:10.717Z,55.60
2019-06-07T04:08:42.207Z,51.30
2019-06-07T04:11:09.018Z,54.30
2019-06-07T04:13:42.134Z,53.10
2019-06-07T04:16:07.824Z,50.00
2019-06-07T04:18:40.162Z,56.20
2019-06-07T04:21:06.056Z,57.10
2019-06-07T04:23:37.919Z,65.20
2019-06-07T04:26:04.273Z,67.30
2019-06-07T04:29:27.398Z,69.60
2019-06-07T04:31:02.513Z,63.60
2019-06-07T04:33:31.229Z,62.30
2019-06-07T04:36:00.401Z,68.70
2019-06-07T04:38:29.491Z,76.50
2019-06-07T04:40:58.670Z,71.50
2019-06-07T04:43:26.930Z,75.80
2019-06-07T04:45:55.275Z,74.20
2019-06-07T04:48:23.589Z,75.60
2019-06-07T04:50:52.471Z,74.70
2019-06-07T04:53:20.986Z,72.70
2019-06-07T04:55:49.242Z,76.50
2019-06-07T04:58:17.519Z,80.60
2019-06-07T05:00:53.111Z,74.80
2019-06-07T05:03:15.765Z,75.00
2019-06-07T05:05:44.080Z,76.40
2019-06-07T05:08:27.690Z,77.90
2019-06-07T05:10:43.880Z,78.30
2019-06-07T05:13:12.317Z,77.30
2019-06-07T05:15:42.228Z,79.40
2019-06-07T05:18:10.562Z,80.70
2019-06-07T05:20:41.545Z,81.30
2019-06-07T05:23:08.793Z,79.80
2019-06-07T05:25:42.231Z,77.30
2019-06-07T05:28:07.030Z,77.50
2019-06-07T05:33:12.918Z,76.70
2019-06-07T05:35:43.313Z,77.60
2019-06-07T05:38:11.149Z,76.00
2019-06-07T05:40:43.888Z,78.50
2019-06-07T05:43:24.905Z,76.80
2019-06-07T05:45:53.166Z,76.20
2019-06-07T05:48:21.463Z,73.20
2019-06-07T05:50:56.553Z,70.70
2019-06-07T05:53:19.708Z,68.10
2019-06-07T05:55:48.073Z,69.10
2019-06-07T05:58:16.315Z,67.00
2019-06-07T06:00:47.184Z,67.20
2019-06-07T06:03:14.550Z,66.70
2019-06-07T06:05:53.583Z,66.50
2019-06-07T06:08:12.782Z,67.20
2019-06-07T06:10:46.137Z,65.60
2019-06-07T06:13:11.022Z,64.90
2019-06-07T06:15:50.177Z,64.40
2019-06-07T06:18:09.250Z,65.70
2019-06-07T06:21:01.233Z,64.90
2019-06-07T06:23:07.497Z,61.20
2019-06-07T06:25:37.576Z,58.20
2019-06-07T06:28:12.134Z,50.80
2019-06-07T06:30:35.968Z,46.60
2019-06-07T06:33:04.537Z,47.10
2019-06-07T06:35:32.870Z,43.10
2019-06-07T06:38:01.113Z,40.50
2019-06-07T06:40:29.373Z,35.20
2019-06-07T06:42:57.694Z,32.60
2019-06-07T06:45:25.953Z,31.00
2019-06-07T06:47:54.209Z,30.60
2019-06-07T06:50:22.470Z,29.30
2019-06-07T06:53:02.655Z,31.90
2019-06-07T06:55:30.918Z,35.20
2019-06-07T06:57:59.165Z,38.00
2019-06-07T07:01:04.503Z,40.00
2019-06-07T07:05:54.258Z,41.90
2019-06-07T07:08:20.103Z,42.60
2019-06-07T07:10:51.107Z,44.80
2019-06-07T07:13:18.355Z,45.40
2019-06-07T07:15:48.142Z,46.30
2019-06-07T07:18:16.645Z,46.70
2019-06-07T07:20:45.922Z,43.10
2019-06-07T07:23:14.881Z,39.20
2019-06-07T07:25:46.055Z,32.30
2019-06-07T07:28:13.137Z,32.70
2019-06-07T07:30:56.384Z,32.40
2019-06-07T07:33:22.061Z,30.40
2019-06-07T07:36:14.059Z,28.40
2019-06-07T07:38:20.291Z,25.90
2019-06-07T07:41:01.953Z,27.20
2019-06-07T07:43:18.509Z,24.10
2019-06-07T07:45:51.037Z,24.30
2019-06-07T07:48:18.518Z,24.20
2019-06-07T07:50:49.828Z,22.80
2019-06-07T07:53:16.685Z,21.40
2019-06-07T07:55:45.743Z,21.30
2019-06-07T07:58:14.924Z,23.10
2019-06-07T08:00:56.986Z,23.40
2019-06-07T08:03:13.166Z,23.20
2019-06-07T08:05:43.335Z,23.20
2019-06-07T08:08:11.400Z,24.20
2019-06-07T08:10:39.716Z,24.60
2019-06-07T08:13:24.474Z,24.40
2019-06-07T08:15:38.042Z,22.90
2019-06-07T08:18:06.290Z,21.00
2019-06-07T08:20:34.538Z,21.60
2019-06-07T08:23:02.806Z,21.20
2019-06-07T08:25:31.060Z,22.90
2019-06-07T08:27:59.318Z,24.30
2019-06-07T08:33:12.025Z,23.20
2019-06-07T08:36:03.575Z,25.30
2019-06-07T08:40:27.737Z,27.70
2019-06-07T08:43:18.442Z,28.60
2019-06-07T08:45:25.971Z,30.10
2019-06-07T08:47:58.121Z,30.70
2019-06-07T08:50:24.201Z,28.40
2019-06-07T08:52:56.316Z,31.40
2019-06-07T08:55:22.999Z,31.20
2019-06-07T08:57:51.904Z,31.20
2019-06-07T09:00:45.241Z,34.50
2019-06-07T09:02:54.618Z,34.70
2019-06-07T09:05:22.760Z,34.70
2019-06-07T09:08:13.346Z,34.80
2019-06-07T09:10:20.987Z,35.90
2019-06-07T09:12:49.322Z,34.90
2019-06-07T09:15:23.496Z,34.20
2019-06-07T09:18:30.163Z,33.00
2019-06-07T09:20:35.930Z,33.40
2019-06-07T09:22:47.566Z,32.80
2019-06-07T09:25:21.005Z,31.30
2019-06-07T09:27:45.795Z,34.50
2019-06-07T09:30:18.491Z,36.40
2019-06-07T09:32:44.018Z,35.70
2019-06-07T09:35:17.297Z,35.10
2019-06-07T09:40:24.894Z,35.30
2019-06-07T09:42:42.233Z,34.20
2019-06-07T09:45:13.966Z,34.60
2019-06-07T09:47:40.456Z,36.50
2019-06-07T09:50:12.026Z,36.40
2019-06-07T09:52:57.241Z,34.40
2019-06-07T09:55:22.799Z,35.30
2019-06-07T09:57:38.629Z,37.00
2019-06-07T10:00:39.099Z,35.20
2019-06-07T10:02:44.316Z,33.40
2019-06-07T10:05:14.317Z,36.40
2019-06-07T10:08:00.077Z,35.60
2019-06-07T10:12:42.575Z,34.40
2019-06-07T10:15:10.818Z,36.10
2019-06-07T10:17:39.076Z,35.20
2019-06-07T10:20:07.612Z,37.70
2019-06-07T10:22:36.054Z,37.60
2019-06-07T10:25:06.345Z,39.00
2019-06-07T10:27:34.980Z,36.50
2019-06-07T10:30:04.397Z,35.30
2019-06-07T10:32:32.649Z,38.10
2019-06-07T10:35:03.057Z,34.40
2019-06-07T10:37:30.881Z,35.30
2019-06-07T10:39:59.129Z,35.60
2019-06-07T10:42:27.394Z,36.80
2019-06-07T10:44:55.629Z,33.90
2019-06-07T10:47:23.881Z,33.20
2019-06-07T10:49:52.142Z,34.20
2019-06-07T10:52:20.382Z,34.10
2019-06-07T10:54:48.637Z,34.50
2019-06-07T10:57:16.886Z,34.70
2019-06-07T10:59:45.146Z,33.00
2019-06-07T11:02:14.069Z,33.70
2019-06-07T11:04:42.830Z,33.20
2019-06-07T11:07:12.068Z,35.00
2019-06-07T11:09:40.419Z,33.80
2019-06-07T11:12:08.668Z,33.80
2019-06-07T11:14:36.930Z,33.80
2019-06-07T11:17:05.285Z,34.10
2019-06-07T11:19:33.569Z,36.10
2019-06-07T11:22:01.822Z,32.20
2019-06-07T11:24:30.073Z,32.40
2019-06-07T11:26:58.323Z,33.10
2019-06-07T11:29:26.581Z,33.90
2019-06-07T11:31:54.829Z,33.10
2019-06-07T11:34:23.086Z,32.70
2019-06-07T11:36:51.337Z,33.90
2019-06-07T11:39:19.597Z,32.30
2019-06-07T11:41:47.840Z,30.50
2019-06-07T11:44:17.195Z,32.40
2019-06-07T11:46:45.939Z,31.20
2019-06-07T11:49:19.834Z,34.30
2019-06-07T11:51:44.193Z,32.80
2019-06-07T11:54:13.881Z,32.60
2019-06-07T11:56:42.373Z,33.30
2019-06-07T11:59:11.179Z,34.60
2019-06-07T12:01:39.753Z,36.00
2019-06-07T12:04:09.437Z,32.70
2019-06-07T12:06:38.032Z,32.80
2019-06-07T12:09:08.561Z,33.70
2019-06-07T12:11:36.963Z,31.90
2019-06-07T12:14:05.420Z,33.80
2019-06-07T12:16:33.666Z,34.80
2019-06-07T12:19:01.923Z,35.80
2019-06-07T12:21:30.170Z,34.10
2019-06-07T12:23:58.548Z,34.40
2019-06-07T12:26:26.850Z,34.10
2019-06-07T12:28:55.101Z,32.10
2019-06-07T12:31:23.352Z,33.60
2019-06-07T12:33:51.788Z,31.40
2019-06-07T12:36:20.075Z,32.10
2019-06-07T12:38:48.340Z,34.00
2019-06-07T12:41:16.581Z,32.40
2019-06-07T12:43:44.828Z,35.80
2019-06-07T12:46:15.348Z,32.20
2019-06-07T12:48:43.054Z,32.20
2019-06-07T12:51:11.293Z,31.20
2019-06-07T12:53:39.549Z,32.90
2019-06-07T12:56:07.803Z,33.10
2019-06-07T12:58:39.371Z,31.70
2019-06-07T13:01:06.034Z,32.00
2019-06-07T13:03:34.271Z,31.50
2019-06-07T13:06:02.613Z,31.90
2019-06-07T13:08:30.870Z,33.10
2019-06-07T13:11:14.086Z,32.60
2019-06-07T13:13:29.090Z,33.70
2019-06-07T13:15:57.383Z,31.80
2019-06-07T13:18:25.681Z,33.20
2019-06-07T13:20:55.495Z,31.00
2019-06-07T13:23:24.403Z,32.10
2019-06-07T13:25:52.912Z,32.00
2019-06-07T13:28:22.569Z,31.90
2019-06-07T13:30:51.197Z,32.30
2019-06-07T13:33:21.393Z,30.90
2019-06-07T13:35:49.414Z,31.50
2019-06-07T13:38:26.638Z,32.10
2019-06-07T13:40:56.306Z,30.40
2019-06-07T13:43:25.722Z,33.30
2019-06-07T13:45:54.349Z,32.80
2019-06-07T13:48:23.376Z,32.70
2019-06-07T13:50:51.734Z,32.50
2019-06-07T13:53:20.706Z,32.20
2019-06-07T13:55:49.186Z,31.90
2019-06-07T13:58:18.699Z,31.00
2019-06-07T14:00:47.435Z,29.30
2019-06-07T14:03:15.678Z,30.10
2019-06-07T14:05:43.938Z,30.10
2019-06-07T14:08:12.177Z,29.60
2019-06-07T14:10:40.435Z,31.60
2019-06-07T14:13:08.673Z,31.40
2019-06-07T14:15:36.932Z,30.60
2019-06-07T14:18:05.191Z,30.90
2019-06-07T14:20:34.672Z,30.30
2019-06-07T14:23:03.437Z,28.60
2019-06-07T14:25:31.694Z,26.10
2019-06-07T14:27:59.937Z,28.70
2019-06-07T14:30:28.497Z,29.80
2019-06-07T14:32:57.517Z,30.70
2019-06-07T14:35:26.691Z,30.30
2019-06-07T14:37:55.574Z,31.00
2019-06-07T14:40:25.311Z,30.20
2019-06-07T14:42:53.858Z,29.60
2019-06-07T14:45:23.477Z,30.00
2019-06-07T14:47:51.836Z,31.70
2019-06-07T14:50:20.089Z,31.80
2019-06-07T14:52:48.329Z,31.70
2019-06-07T14:55:16.651Z,31.60
2019-06-07T14:57:44.919Z,33.10
2019-06-07T15:00:14.397Z,32.80
2019-06-07T15:02:42.661Z,33.20
2019-06-07T15:05:11.048Z,34.50
2019-06-07T15:07:40.425Z,33.60
2019-06-07T15:10:09.852Z,34.70
2019-06-07T15:12:39.619Z,34.50
2019-06-07T15:15:08.196Z,35.80
2019-06-07T15:17:36.455Z,35.60
2019-06-07T15:20:07.552Z,35.20
2019-06-07T15:22:36.313Z,35.60
2019-06-07T15:25:07.574Z,36.30
2019-06-07T15:27:35.829Z,35.80
2019-06-07T15:30:10.280Z,36.40
2019-06-07T15:32:38.868Z,36.90
2019-06-07T15:35:09.670Z,35.60
2019-06-07T15:37:39.176Z,35.30
2019-06-07T15:40:08.018Z,35.70
2019-06-07T15:42:47.448Z,36.60
2019-06-07T15:45:06.685Z,35.90
2019-06-07T15:47:35.890Z,37.10
2019-06-07T15:50:07.737Z,38.00
2019-06-07T15:52:35.998Z,38.30
2019-06-07T15:55:06.693Z,38.10
2019-06-07T15:57:35.197Z,40.30
2019-06-07T16:00:06.927Z,39.20
2019-06-07T16:02:35.685Z,40.00
2019-06-07T16:05:05.463Z,39.60
2019-06-07T16:07:34.096Z,38.90
2019-06-07T16:10:02.637Z,39.50
2019-06-07T16:12:30.897Z,38.60
2019-06-07T16:14:59.904Z,39.70
2019-06-07T16:17:28.162Z,39.70
2019-06-07T16:19:56.406Z,40.40
2019-06-07T16:22:24.671Z,40.50
2019-06-07T16:24:52.909Z,40.50
2019-06-07T16:27:21.183Z,40.70
2019-06-07T16:29:51.477Z,41.40
2019-06-07T16:32:19.793Z,42.40
2019-06-07T16:34:48.037Z,41.30
2019-06-07T16:37:16.303Z,41.20
2019-06-07T16:39:44.763Z,42.30
2019-06-07T16:42:13.090Z,42.40
2019-06-07T16:44:42.523Z,42.50
2019-06-07T16:47:11.170Z,42.00
2019-06-07T16:49:40.665Z,42.10
2019-06-07T16:52:09.054Z,42.30
2019-06-07T16:54:37.343Z,42.70
2019-06-07T16:57:05.663Z,42.70
2019-06-07T16:59:33.963Z,43.90
2019-06-07T17:02:02.248Z,43.40
2019-06-07T17:04:30.489Z,43.20
2019-06-07T17:06:58.750Z,44.20
2019-06-07T17:09:26.998Z,44.10
2019-06-07T17:11:55.258Z,43.80
2019-06-07T17:14:23.503Z,44.60
2019-06-07T17:16:51.787Z,46.00
2019-06-07T17:19:20.133Z,44.10
2019-06-07T17:21:49.561Z,44.80
2019-06-07T17:24:17.982Z,44.50
2019-06-07T17:26:47.565Z,44.50
2019-06-07T17:29:16.079Z,45.50
2019-06-07T17:31:44.732Z,45.80
2019-06-07T17:34:13.739Z,45.90
2019-06-07T17:36:42.324Z,45.20
2019-06-07T17:39:10.731Z,45.40
2019-06-07T17:41:51.487Z,45.90
2019-06-07T17:44:09.051Z,45.60
2019-06-07T17:46:37.710Z,45.40
2019-06-07T17:49:05.974Z,46.10
2019-06-07T17:51:34.213Z,45.60
2019-06-07T17:54:02.484Z,47.40
2019-06-07T17:56:30.733Z,47.20
2019-06-07T17:58:58.999Z,47.70
2019-06-07T18:01:40.647Z,48.50
2019-06-07T18:03:57.237Z,49.20
2019-06-07T18:06:25.501Z,49.30
2019-06-07T18:08:55.802Z,50.00
2019-06-07T18:11:24.058Z,50.30
2019-06-07T18:14:08.534Z,50.00
2019-06-07T18:16:25.062Z,50.00
2019-06-07T18:18:55.981Z,50.30
2019-06-07T18:21:24.229Z,50.10
2019-06-07T18:23:52.975Z,49.80
2019-06-07T18:26:21.715Z,50.10
2019-06-07T18:28:50.597Z,50.40
2019-06-07T18:31:18.929Z,50.00
2019-06-07T18:33:47.195Z,49.80
2019-06-07T18:36:15.440Z,50.20
2019-06-07T18:38:43.831Z,51.10
2019-06-07T18:41:12.150Z,51.30
2019-06-07T18:43:40.479Z,52.20
2019-06-07T18:46:11.114Z,53.40
2019-06-07T18:48:39.369Z,52.90
2019-06-07T18:51:07.686Z,52.90
2019-06-07T18:53:35.962Z,53.70
2019-06-07T18:56:04.671Z,54.20
2019-06-07T18:58:33.176Z,54.20
2019-06-07T19:01:01.516Z,54.80
2019-06-07T19:03:29.849Z,56.40
2019-06-07T19:05:58.318Z,59.40
2019-06-07T19:08:26.754Z,60.70
2019-06-07T19:10:55.085Z,61.90
2019-06-07T19:13:23.344Z,65.90
2019-06-07T19:15:51.593Z,72.30
2019-06-07T19:18:19.911Z,81.30
2019-06-07T19:20:48.186Z,84.10
2019-06-07T19:23:16.449Z,85.20
2019-06-07T19:25:44.729Z,87.70
2019-06-07T19:28:13.045Z,90.30
2019-06-07T19:30:41.308Z,92.70
2019-06-07T19:33:09.637Z,92.30
2019-06-07T19:35:37.975Z,93.40
2019-06-07T19:38:06.295Z,92.90
2019-06-07T19:40:34.555Z,93.90
2019-06-07T19:43:03.958Z,94.30
2019-06-07T19:45:32.452Z,92.10
2019-06-07T19:48:00.820Z,92.20
2019-06-07T19:50:29.232Z,88.10
2019-06-07T19:52:57.478Z,86.60
2019-06-07T19:55:25.741Z,85.60
2019-06-07T19:57:55.409Z,84.60
2019-06-07T20:00:23.897Z,84.40
2019-06-07T20:02:52.157Z,85.60
2019-06-07T20:05:20.415Z,88.10
2019-06-07T20:07:48.742Z,89.20
2019-06-07T20:10:17.010Z,89.00
2019-06-07T20:12:45.270Z,86.10
2019-06-07T20:15:27.894Z,81.50
2019-06-07T20:17:43.655Z,78.30
2019-06-07T20:20:11.913Z,81.70
2019-06-07T20:22:40.157Z,77.00
2019-06-07T20:25:09.244Z,81.30
2019-06-07T20:27:37.652Z,73.60
2019-06-07T20:30:08.607Z,73.60
2019-06-07T20:32:36.883Z,72.30
2019-06-07T20:35:06.004Z,73.40
2019-06-07T20:37:34.515Z,71.50
2019-06-07T20:40:19.511Z,73.20
2019-06-07T20:42:33.335Z,73.80
2019-06-07T20:45:02.113Z,73.10
2019-06-07T20:47:30.780Z,75.30
2019-06-07T20:50:00.053Z,78.10
2019-06-07T20:52:28.502Z,79.80
2019-06-07T20:54:56.766Z,75.50
2019-06-07T20:57:25.014Z,78.90
2019-06-07T20:59:53.294Z,82.40
2019-06-07T21:02:21.604Z,80.40
2019-06-07T21:04:49.867Z,82.50
2019-06-07T21:07:18.143Z,82.80
2019-06-07T21:09:46.398Z,83.70
2019-06-07T21:12:14.650Z,84.10
2019-06-07T21:14:42.929Z,81.30
2019-06-07T21:17:11.183Z,81.70
2019-06-07T21:19:39.431Z,84.70
2019-06-07T21:22:08.794Z,83.20
2019-06-07T21:24:37.321Z,83.20
2019-06-07T21:27:05.596Z,85.50
2019-06-07T21:29:33.860Z,84.70
2019-06-07T21:32:03.304Z,86.20
2019-06-07T21:34:31.846Z,87.90
2019-06-07T21:37:01.584Z,87.60
2019-06-07T21:39:30.038Z,87.60
2019-06-07T21:41:58.301Z,87.40
2019-06-07T21:44:26.553Z,89.40
2019-06-07T21:46:54.825Z,88.20
2019-06-07T21:49:23.081Z,90.70
2019-06-07T21:51:51.342Z,89.40
2019-06-07T21:54:19.593Z,87.10
2019-06-07T21:56:47.858Z,89.30
2019-06-07T21:59:16.118Z,88.20
2019-06-07T22:01:44.382Z,88.30
2019-06-07T22:04:13.736Z,87.80
2019-06-07T22:06:42.280Z,89.70
2019-06-07T22:09:12.254Z,90.00
2019-06-07T22:11:40.505Z,88.10
2019-06-07T22:14:08.762Z,89.70
2019-06-07T22:16:37.029Z,91.10
2019-06-07T22:19:06.399Z,90.40
2019-06-07T22:21:35.033Z,90.50
2019-06-07T22:24:04.679Z,88.20
2019-06-07T22:26:33.217Z,88.80
2019-06-07T22:29:01.483Z,89.80
2019-06-07T22:31:31.081Z,89.80
2019-06-07T22:33:59.626Z,89.30
2019-06-07T22:36:27.901Z,89.80
2019-06-07T22:38:56.158Z,90.30
2019-06-07T22:41:24.485Z,90.10
2019-06-07T22:43:52.729Z,91.70
2019-06-07T22:46:35.913Z,90.50
2019-06-07T22:48:50.980Z,89.50
2019-06-07T22:51:19.341Z,90.40
2019-06-07T22:53:47.639Z,89.10
2019-06-07T22:56:20.239Z,92.00
2019-06-07T22:58:48.493Z,90.20
2019-06-07T23:01:17.113Z,92.00
2019-06-07T23:03:45.687Z,93.40
2019-06-07T23:06:14.724Z,82.60
2019-06-07T23:08:43.079Z,87.20
2019-06-07T23:11:11.409Z,85.30
2019-06-07T23:13:39.673Z,87.40
2019-06-07T23:16:09.311Z,88.60
2019-06-07T23:18:37.733Z,87.80
2019-06-07T23:21:05.985Z,87.50
2019-06-07T23:23:34.242Z,86.20
2019-06-07T23:26:02.493Z,87.40
2019-06-07T23:28:30.749Z,90.30
2019-06-07T23:30:59.006Z,84.40
2019-06-07T23:33:27.268Z,86.30
2019-06-07T23:35:55.518Z,86.00
2019-06-07T23:38:23.792Z,86.90
2019-06-07T23:40:52.035Z,89.30
2019-06-07T23:43:21.491Z,85.90
2019-06-07T23:45:50.033Z,89.40
2019-06-07T23:48:19.496Z,89.90
2019-06-07T23:50:47.921Z,89.60
2019-06-07T23:53:16.181Z,86.90
2019-06-07T23:55:44.434Z,87.20
2019-06-07T23:58:13.863Z,88.60
